Time,TemperatureF,DewpointF,PressureIn,WindDirection,WindDirectionDegrees,WindSpeedMPH,WindSpeedGustMPH,Humidity,HourlyPrecipIn,Conditions,Clouds,dailyrainin,SoftwareType,DateUTC
2013-07-18 00:01:00,62.0,54.0,-100.00,ESE,109,7.0,9.0,74,-99.99,,,-99.99,,2013-07-18 06:01:00,
2013-07-18 00:11:00,62.0,54.0,-100.00,ESE,109,7.0,9.0,74,-99.99,,,-99.99,,2013-07-18 06:11:00,
2013-07-18 00:40:00,60.0,54.0,-100.00,East,81,5.0,5.0,78,-99.99,,,-99.99,,2013-07-18 06:40:00,
2013-07-18 00:43:00,61.0,54.0,-100.00,East,88,7.0,9.0,75,-99.99,,,-99.99,,2013-07-18 06:43:00,
2013-07-18 00:52:00,61.0,54.0,-100.00,East,88,7.0,9.0,75,-99.99,,,-99.99,,2013-07-18 06:52:00,
2013-07-18 01:01:00,61.0,53.0,-100.00,East,88,6.0,7.0,76,-99.99,,,-99.99,,2013-07-18 07:01:00,
2013-07-18 01:11:00,60.0,54.0,-100.00,East,81,5.0,5.0,78,-99.99,,,-99.99,,2013-07-18 07:11:00,
2013-07-18 01:22:00,60.0,54.0,-100.00,East,81,5.0,5.0,78,-99.99,,,-99.99,,2013-07-18 07:22:00,
2013-07-18 01:32:00,60.0,54.0,-100.00,East,81,5.0,5.0,78,-99.99,,,-99.99,,2013-07-18 07:32:00,
2013-07-18 05:01:00,53.0,49.0,-100.00,NE,54,3.0,3.0,85,-99.99,,,-99.99,,2013-07-18 11:01:00,
2013-07-18 05:22:00,53.0,49.0,-100.00,NNE,26,2.0,3.0,85,-99.99,,,-99.99,,2013-07-18 11:22:00,
2013-07-18 05:32:00,53.0,49.0,-100.00,NNE,26,2.0,3.0,85,-99.99,,,-99.99,,2013-07-18 11:32:00,
2013-07-18 05:43:00,53.0,49.0,-100.00,NNW,340,0.0,1.0,85,-99.99,,,-99.99,,2013-07-18 11:43:00,
2013-07-18 05:52:00,53.0,49.0,-100.00,NNW,340,0.0,1.0,85,-99.99,,,-99.99,,2013-07-18 11:52:00,
2013-07-18 06:22:00,53.0,49.0,-100.00,NNW,334,0.0,4.0,85,-99.99,,,-99.99,,2013-07-18 12:22:00,
2013-07-18 06:32:00,53.0,49.0,-100.00,NNW,334,0.0,4.0,85,-99.99,,,-99.99,,2013-07-18 12:32:00,
2013-07-18 06:42:00,52.0,48.0,-100.00,ENE,66,3.0,4.0,85,-99.99,,,-99.99,,2013-07-18 12:42:00,
2013-07-18 06:52:00,52.0,48.0,-100.00,ENE,66,3.0,4.0,85,-99.99,,,-99.99,,2013-07-18 12:52:00,
2013-07-18 07:01:00,52.0,48.0,-100.00,ENE,66,3.0,4.0,85,-99.99,,,-99.99,,2013-07-18 13:01:00,
2013-07-18 07:11:00,53.0,49.0,-100.00,ENE,76,2.0,5.0,85,-99.99,,,-99.99,,2013-07-18 13:11:00,
2013-07-18 07:22:00,53.0,49.0,-100.00,NNE,32,3.0,5.0,86,-99.99,,,-99.99,,2013-07-18 13:22:00,
2013-07-18 07:32:00,53.0,49.0,-100.00,NNE,32,3.0,5.0,86,-99.99,,,-99.99,,2013-07-18 13:32:00,
2013-07-18 07:43:00,56.0,51.0,-100.00,ENE,72,4.0,4.0,84,-99.99,,,-99.99,,2013-07-18 13:43:00,
2013-07-18 08:02:00,57.0,51.0,-100.00,NNE,30,4.0,4.0,82,-99.99,,,-99.99,,2013-07-18 14:02:00,
2013-07-18 08:11:00,59.0,52.0,-100.00,NNE,28,3.0,5.0,76,-99.99,,,-99.99,,2013-07-18 14:11:00,
2013-07-18 08:22:00,60.0,52.0,-100.00,ESE,123,1.0,4.0,74,-99.99,,,-99.99,,2013-07-18 14:22:00,
2013-07-18 08:32:00,60.0,52.0,-100.00,ESE,123,1.0,4.0,74,-99.99,,,-99.99,,2013-07-18 14:32:00,
2013-07-18 08:52:00,62.0,52.0,-100.00,NNE,12,2.0,4.0,70,-99.99,,,-99.99,,2013-07-18 14:52:00,
2013-07-18 09:11:00,63.0,52.0,-100.00,SE,126,1.0,2.0,66,-99.99,,,-99.99,,2013-07-18 15:11:00,
2013-07-18 09:22:00,65.0,52.0,-100.00,SE,129,3.0,4.0,63,-99.99,,,-99.99,,2013-07-18 15:22:00,
2013-07-18 09:42:00,66.0,53.0,-100.00,WSW,241,1.0,5.0,63,-99.99,,,-99.99,,2013-07-18 15:42:00,
2013-07-18 10:01:00,67.0,52.0,-100.00,NNW,338,3.0,4.0,56,-99.99,,,-99.99,,2013-07-18 16:01:00,
2013-07-18 10:11:00,69.0,51.0,-100.00,NW,308,2.0,5.0,53,-99.99,,,-99.99,,2013-07-18 16:11:00,
2013-07-18 10:22:00,69.0,52.0,-100.00,SW,227,1.0,4.0,53,-99.99,,,-99.99,,2013-07-18 16:22:00,
2013-07-18 10:32:00,69.0,52.0,-100.00,SW,227,1.0,4.0,53,-99.99,,,-99.99,,2013-07-18 16:32:00,
2013-07-18 10:42:00,72.0,51.0,-100.00,ENE,78,1.0,4.0,47,-99.99,,,-99.99,,2013-07-18 16:42:00,
2013-07-18 10:52:00,74.0,50.0,-100.00,SE,136,2.0,4.0,43,-99.99,,,-99.99,,2013-07-18 16:52:00,
2013-07-18 11:02:00,74.0,50.0,-100.00,SE,136,2.0,4.0,43,-99.99,,,-99.99,,2013-07-18 17:02:00,
2013-07-18 11:11:00,75.0,51.0,-100.00,ENE,73,4.0,8.0,41,-99.99,,,-99.99,,2013-07-18 17:11:00,
2013-07-18 11:22:00,76.0,50.0,-100.00,NNE,19,3.0,6.0,39,-99.99,,,-99.99,,2013-07-18 17:22:00,
2013-07-18 11:33:00,76.0,50.0,-100.00,NNE,19,3.0,6.0,39,-99.99,,,-99.99,,2013-07-18 17:33:00,
2013-07-18 11:43:00,79.0,48.0,-100.00,NNW,340,2.0,6.0,34,-99.99,,,-99.99,,2013-07-18 17:43:00,
2013-07-18 12:01:00,80.0,48.0,-100.00,SE,144,1.0,5.0,32,-99.99,,,-99.99,,2013-07-18 18:01:00,
2013-07-18 12:11:00,79.0,48.0,-100.00,North,353,6.0,7.0,33,-99.99,,,-99.99,,2013-07-18 18:11:00,
2013-07-18 12:22:00,78.0,47.0,-100.00,WSW,249,5.0,8.0,33,-99.99,,,-99.99,,2013-07-18 18:22:00,
2013-07-18 12:32:00,78.0,47.0,-100.00,WSW,249,5.0,8.0,33,-99.99,,,-99.99,,2013-07-18 18:32:00,
2013-07-18 12:43:00,81.0,48.0,-100.00,WNW,303,7.0,9.0,31,-99.99,,,-99.99,,2013-07-18 18:43:00,
2013-07-18 12:52:00,81.0,47.0,-100.00,NNE,22,8.0,9.0,30,-99.99,,,-99.99,,2013-07-18 18:52:00,
2013-07-18 13:01:00,81.0,47.0,-100.00,NNE,22,8.0,9.0,30,-99.99,,,-99.99,,2013-07-18 19:01:00,
2013-07-18 13:22:00,82.0,42.0,-100.00,NNE,20,9.0,13.0,24,-99.99,,,-99.99,,2013-07-18 19:22:00,
2013-07-18 13:32:00,82.0,42.0,-100.00,NNE,20,9.0,13.0,24,-99.99,,,-99.99,,2013-07-18 19:32:00,
2013-07-18 13:43:00,82.0,42.0,-100.00,NNE,20,9.0,13.0,24,-99.99,,,-99.99,,2013-07-18 19:43:00,
2013-07-18 13:53:00,84.0,43.0,-100.00,North,10,6.0,12.0,23,-99.99,,,-99.99,,2013-07-18 19:53:00,
2013-07-18 14:01:00,84.0,43.0,-100.00,North,10,6.0,12.0,23,-99.99,,,-99.99,,2013-07-18 20:01:00,
2013-07-18 14:11:00,84.0,41.0,-100.00,ENE,64,5.0,10.0,21,-99.99,,,-99.99,,2013-07-18 20:11:00,
2013-07-18 14:43:00,85.0,41.0,-100.00,NNW,336,5.0,8.0,21,-99.99,,,-99.99,,2013-07-18 20:43:00,
2013-07-18 15:22:00,85.0,34.0,-100.00,NNW,339,11.0,16.0,16,-99.99,,,-99.99,,2013-07-18 21:22:00,
2013-07-18 15:32:00,85.0,35.0,-100.00,WNW,302,13.0,20.0,16,-99.99,,,-99.99,,2013-07-18 21:32:00,
2013-07-18 15:43:00,86.0,37.0,-100.00,WNW,289,6.0,15.0,17,-99.99,,,-99.99,,2013-07-18 21:43:00,
2013-07-18 15:52:00,86.0,36.0,-100.00,NW,315,15.0,18.0,16,-99.99,,,-99.99,,2013-07-18 21:52:00,
2013-07-18 16:01:00,86.0,36.0,-100.00,NW,315,15.0,18.0,16,-99.99,,,-99.99,,2013-07-18 22:01:00,
2013-07-18 16:11:00,86.0,36.0,-100.00,NW,315,15.0,18.0,16,-99.99,,,-99.99,,2013-07-18 22:11:00,
2013-07-18 16:22:00,86.0,35.0,-100.00,WNW,293,12.0,20.0,16,-99.99,,,-99.99,,2013-07-18 22:22:00,
2013-07-18 16:32:00,86.0,35.0,-100.00,WNW,293,12.0,20.0,16,-99.99,,,-99.99,,2013-07-18 22:32:00,
2013-07-18 16:42:00,87.0,36.0,-100.00,North,9,7.0,13.0,16,-99.99,,,-99.99,,2013-07-18 22:42:00,
2013-07-18 16:53:00,85.0,37.0,-100.00,North,3,10.0,16.0,17,-99.99,,,-99.99,,2013-07-18 22:53:00,
2013-07-18 17:01:00,85.0,37.0,-100.00,North,3,10.0,16.0,17,-99.99,,,-99.99,,2013-07-18 23:01:00,
2013-07-18 17:22:00,85.0,38.0,-100.00,NNW,331,10.0,16.0,18,-99.99,,,-99.99,,2013-07-18 23:22:00,
2013-07-18 17:32:00,85.0,38.0,-100.00,NNW,331,10.0,16.0,18,-99.99,,,-99.99,,2013-07-18 23:32:00,
2013-07-18 17:42:00,86.0,37.0,-100.00,North,351,11.0,16.0,17,-99.99,,,-99.99,,2013-07-18 23:42:00,
2013-07-18 17:52:00,86.0,37.0,-100.00,North,351,11.0,16.0,17,-99.99,,,-99.99,,2013-07-18 23:52:00,
2013-07-18 18:43:00,81.0,49.0,-100.00,WNW,286,3.0,4.0,32,-99.99,,,-99.99,,2013-07-19 00:43:00,
2013-07-18 18:52:00,81.0,49.0,-100.00,WNW,286,3.0,4.0,32,-99.99,,,-99.99,,2013-07-19 00:52:00,
2013-07-18 19:01:00,81.0,49.0,-100.00,WNW,286,3.0,4.0,32,-99.99,,,-99.99,,2013-07-19 01:01:00,
2013-07-18 19:11:00,81.0,48.0,-100.00,WNW,298,3.0,4.0,31,-99.99,,,-99.99,,2013-07-19 01:11:00,
2013-07-18 19:21:00,79.0,49.0,-100.00,NW,308,2.0,7.0,34,-99.99,,,-99.99,,2013-07-19 01:21:00,
2013-07-18 19:32:00,79.0,49.0,-100.00,NW,308,2.0,7.0,34,-99.99,,,-99.99,,2013-07-19 01:32:00,
2013-07-18 19:42:00,83.0,45.0,-100.00,West,259,8.0,13.0,26,-99.99,,,-99.99,,2013-07-19 01:42:00,
2013-07-18 19:52:00,83.0,45.0,-100.00,West,259,8.0,13.0,26,-99.99,,,-99.99,,2013-07-19 01:52:00,
2013-07-18 20:01:00,82.0,44.0,-100.00,WSW,250,9.0,13.0,25,-99.99,,,-99.99,,2013-07-19 02:01:00,
2013-07-18 20:11:00,82.0,44.0,-100.00,WSW,250,9.0,13.0,25,-99.99,,,-99.99,,2013-07-19 02:11:00,
2013-07-18 20:22:00,81.0,43.0,-100.00,West,259,10.0,12.0,25,-99.99,,,-99.99,,2013-07-19 02:22:00,
2013-07-18 20:32:00,81.0,43.0,-100.00,West,259,10.0,12.0,25,-99.99,,,-99.99,,2013-07-19 02:32:00,
2013-07-18 20:52:00,78.0,48.0,-100.00,West,274,7.0,9.0,33,-99.99,,,-99.99,,2013-07-19 02:52:00,
2013-07-18 21:01:00,78.0,48.0,-100.00,West,274,7.0,9.0,33,-99.99,,,-99.99,,2013-07-19 03:01:00,
2013-07-18 21:11:00,77.0,46.0,-100.00,SW,228,4.0,8.0,32,-99.99,,,-99.99,,2013-07-19 03:11:00,
2013-07-18 21:22:00,77.0,46.0,-100.00,SW,231,0.0,4.0,33,-99.99,,,-99.99,,2013-07-19 03:22:00,
2013-07-18 21:32:00,77.0,46.0,-100.00,SW,231,0.0,4.0,33,-99.99,,,-99.99,,2013-07-19 03:32:00,
2013-07-18 21:42:00,76.0,45.0,-100.00,South,174,4.0,6.0,33,-99.99,,,-99.99,,2013-07-19 03:42:00,
2013-07-18 21:52:00,76.0,45.0,-100.00,South,190,5.0,7.0,33,-99.99,,,-99.99,,2013-07-19 03:52:00,
2013-07-18 22:02:00,76.0,45.0,-100.00,South,190,5.0,7.0,33,-99.99,,,-99.99,,2013-07-19 04:02:00,
2013-07-18 22:11:00,73.0,47.0,-100.00,ENE,71,1.0,4.0,39,-99.99,,,-99.99,,2013-07-19 04:11:00,
2013-07-18 22:21:00,73.0,47.0,-100.00,ENE,71,1.0,4.0,39,-99.99,,,-99.99,,2013-07-19 04:21:00,
2013-07-18 22:43:00,67.0,47.0,-100.00,WNW,288,4.0,6.0,48,-99.99,,,-99.99,,2013-07-19 04:43:00,
2013-07-18 22:52:00,67.0,47.0,-100.00,WNW,288,4.0,6.0,48,-99.99,,,-99.99,,2013-07-19 04:52:00,
2013-07-18 23:02:00,67.0,47.0,-100.00,WNW,288,4.0,6.0,48,-99.99,,,-99.99,,2013-07-19 05:02:00,
2013-07-18 23:11:00,66.0,47.0,-100.00,North,0,0.0,3.0,50,-99.99,,,-99.99,,2013-07-19 05:11:00,
2013-07-18 23:21:00,65.0,47.0,-100.00,NNW,348,2.0,4.0,51,-99.99,,,-99.99,,2013-07-19 05:21:00,
2013-07-18 23:42:00,63.0,47.0,-100.00,NW,326,1.0,1.0,56,-99.99,,,-99.99,,2013-07-19 05:42:00,